New Liberty, Colorado
Current Conditions -  °F | °C
As of 4:53 PM on Saturday 22 Nov 2014 (Local Time) from KGJT Reporting Station
Overcast Overcast  
Wind Chill: 36°   Ceiling: 6000
Heat Index: 40°   Visibility: 10mi
Dew Point: 23°   Wind: 6mph
Humidity: 51%   Direction: 90°E
Pressure: 29.87"   Gusts: NA
Location:  39.2664°N, 108.95°W
Report Text: KGJT 222353Z 09005KT 10SM SCT046 OVC060 04/M05 A2987 RMK AO2 RAB20E39 SLP127 P0000 60000 T00441050 10067 20044 55003
Loading
Personal Weather Stations






























Interactive Weather Map New forecast layout! Learn more

10-Day Weather Forecast

Advertisements
Track Severe Weather on mobile